Terminal Aerodrome Forecast
Issued by NWS Jacksonville, FL

Home | Current Version | Previous Version | Text Only | Print | Product List | Glossary On
Versions: 1 2 3 4 5 6 7 8 9 10 11 12 13 14 15 16 17 18 19 20 21 22 23 24 25 26 27 28 29 30 31 32 33 34 35
000
FTUS42 KJAX 301700
TAFGNV
TAF
KGNV 301729Z 3018/0118 01006KT P6SM VCSH OVC030
      TEMPO 3018/3021 OVC018
     FM010000 04008KT P6SM SCT030 BKN040
     FM010800 VRB02KT 5SM BR SCT003 SCT250
     FM011000 00000KT 1SM BR OVC002
     FM011300 04003KT 5SM BR OVC006
     FM011500 05004KT P6SM BKN018=

USA.gov is the U.S. government's official web portal to all federal, state and local government web resources and services.